Time;durP1;ratioP1;P1;durP2;ratioP2;P2;SDS_P1;SDS_P2;PMS_P1;PMS_P2;Temp;Humidity;BMP_temperature;BMP_pressure;BME280_temperature;BME280_humidity;BME280_pressure;Samples;Min_cycle;Max_cycle;Signal;HPM_P1;HPM_P2
2021/05/19 00:00:38;;;;;;;2.58;1.38;;;10.80;69.50;;;10.24;55.83;94593.56;5018281;28;20312;-80
2021/05/19 00:03:06;;;;;;;1.50;1.40;;;10.80;69.60;;;10.22;56.15;94596.38;4954166;28;20289;-81
2021/05/19 00:05:33;;;;;;;1.40;1.30;;;10.80;69.60;;;10.18;56.26;94591.72;4852353;29;20210;-80
2021/05/19 00:08:00;;;;;;;1.50;1.40;;;10.80;69.60;;;10.18;55.46;94582.06;4626172;30;20244;-80
2021/05/19 00:12:46;;;;;;;1.30;1.20;;;10.80;69.50;;;10.16;55.99;94583.28;5129560;27;20588;-80
2021/05/19 00:15:13;;;;;;;1.50;1.40;;;10.70;69.50;;;10.12;55.80;94585.47;5084633;28;20660;-79
2021/05/19 00:17:43;;;;;;;2.20;1.50;;;10.70;69.60;;;10.08;56.40;94590.31;5033163;28;20228;-80
2021/05/19 00:20:13;;;;;;;1.48;1.38;;;10.70;69.80;;;10.05;56.73;94589.88;5032022;28;20674;-80
2021/05/19 00:22:41;;;;;;;1.40;1.30;;;10.70;70.00;;;10.03;56.36;94584.03;4927604;28;20394;-80
2021/05/19 00:25:09;;;;;;;1.58;1.48;;;10.70;69.70;;;10.01;56.48;94578.16;4855624;29;20657;-80
2021/05/19 00:27:36;;;;;;;1.63;1.50;;;10.60;70.00;;;10.00;56.71;94579.19;4735599;29;20267;-81
2021/05/19 00:30:06;;;;;;;1.40;1.30;;;10.70;70.10;;;9.96;56.53;94572.72;4545120;30;20676;-80
2021/05/19 00:34:17;;;;;;;1.48;1.38;;;10.60;70.00;;;9.91;56.78;94576.75;5128901;27;20591;-80
2021/05/19 00:36:43;;;;;;;2.35;1.30;;;10.60;70.10;;;9.90;56.64;94575.13;5054263;28;20205;-81
2021/05/19 00:39:12;;;;;;;1.45;1.35;;;10.50;70.00;;;9.92;56.38;94580.16;5064191;28;20232;-79
2021/05/19 00:41:41;;;;;;;1.88;1.58;;;10.60;70.10;;;9.87;57.33;94579.94;5051698;28;20196;-80
2021/05/19 00:44:13;;;;;;;3.00;1.40;;;10.50;70.40;;;9.88;57.56;94579.75;4994318;28;20224;-80
2021/05/19 00:46:48;;;;;;;2.03;1.50;;;10.50;70.60;;;9.86;57.27;94581.75;4855529;29;20227;-81
2021/05/19 00:49:16;;;;;;;1.55;1.45;;;10.50;70.60;;;9.88;57.03;94579.75;4769608;29;20243;-80
2021/05/19 00:51:44;;;;;;;1.92;1.67;;;10.50;70.40;;;9.88;56.68;94579.75;4613838;30;20593;-81
2021/05/19 00:56:43;;;;;;;2.80;1.63;;;10.50;70.40;;;9.88;57.30;94589.41;5127978;27;20332;-81
2021/05/19 00:59:14;;;;;;;1.83;1.48;;;10.40;70.60;;;9.87;57.30;94582.56;5034743;28;20219;-80
2021/05/19 01:01:47;;;;;;;2.38;1.25;;;10.40;70.70;;;9.84;57.20;94586.38;5040914;28;20266;-80
2021/05/19 01:04:16;;;;;;;1.75;1.50;;;10.40;70.50;;;9.87;56.64;94577.31;5034969;28;20220;-81
2021/05/19 01:07:03;;;;;;;1.90;1.40;;;10.40;70.40;;;9.82;56.82;94577.91;4920631;29;20283;-80
2021/05/19 01:09:35;;;;;;;1.88;1.48;;;10.40;70.50;;;9.86;56.42;94575.69;4875196;29;20250;-80
2021/05/19 01:12:13;;;;;;;1.30;1.20;;;10.40;70.30;;;9.82;56.34;94575.28;4844354;29;20230;-81
2021/05/19 01:14:55;;;;;;;1.50;1.40;;;10.40;70.70;;;9.86;55.99;94581.75;5131535;27;20564;-81
2021/05/19 01:17:22;;;;;;;1.40;1.27;;;10.40;70.30;;;9.86;55.64;94580.94;5084309;28;20715;-80
2021/05/19 01:19:52;;;;;;;1.70;1.23;;;10.40;70.30;;;9.87;55.61;94583.34;5105875;28;20245;-80
2021/05/19 01:22:19;;;;;;;1.58;1.45;;;10.50;70.50;;;9.85;55.73;94579.31;5055408;28;20214;-81
2021/05/19 01:24:49;;;;;;;1.83;1.40;;;10.40;70.20;;;9.84;55.53;94577.69;5020942;28;20675;-80
2021/05/19 01:27:17;;;;;;;2.95;1.50;;;10.30;70.30;;;9.83;56.01;94584.75;4952540;28;20213;-80
2021/05/19 01:29:50;;;;;;;1.58;1.48;;;10.30;70.20;;;9.85;56.17;94588.00;4879116;28;20219;-80
2021/05/19 01:32:17;;;;;;;2.78;1.67;;;10.30;70.60;;;9.81;56.23;94583.34;4629215;29;20226;-81
2021/05/19 01:36:50;;;;;;;2.35;1.67;;;10.30;70.30;;;9.82;56.15;94584.97;5138722;27;20568;-81
2021/05/19 01:39:18;;;;;;;1.35;1.23;;;10.40;70.30;;;9.84;56.01;94588.19;5083139;28;20225;-80
2021/05/19 01:41:46;;;;;;;2.20;1.63;;;10.40;70.40;;;9.86;56.29;94589.63;5092360;28;20218;-80
2021/05/19 01:44:18;;;;;;;1.42;1.33;;;10.40;70.50;;;9.89;55.98;94593.66;5052571;28;20291;-80
2021/05/19 01:47:07;;;;;;;1.33;1.27;;;10.30;70.70;;;9.90;55.88;94592.66;4932031;28;20209;-81
2021/05/19 01:49:41;;;;;;;1.60;1.50;;;10.40;70.40;;;9.90;56.20;94582.97;4863155;29;20678;-79
2021/05/19 01:52:11;;;;;;;1.77;1.60;;;10.40;70.90;;;9.93;56.19;94594.88;4751357;29;20216;-80
2021/05/19 01:55:05;;;;;;;1.73;1.60;;;10.40;70.70;;;9.93;56.22;94590.44;5129029;27;20564;-81
2021/05/19 01:57:34;;;;;;;2.13;1.60;;;10.40;70.60;;;9.92;55.94;94586.22;5068924;27;20270;-80
2021/05/19 02:00:03;;;;;;;1.73;1.30;;;10.40;70.60;;;9.94;56.07;94581.56;5088222;28;20221;-79
2021/05/19 02:02:42;;;;;;;1.63;1.30;;;10.40;70.50;;;9.91;55.85;94581.16;5023356;28;20235;-80
2021/05/19 02:05:16;;;;;;;1.90;1.58;;;10.40;70.60;;;9.94;55.86;94584.19;4977210;28;20234;-80
2021/05/19 02:07:44;;;;;;;2.25;1.50;;;10.40;70.50;;;9.92;55.78;94578.38;4904998;28;20233;-80
2021/05/19 02:10:11;;;;;;;1.67;1.58;;;10.50;70.50;;;9.95;55.40;94574.53;4819197;29;21433;-80
2021/05/19 02:12:52;;;;;;;1.70;1.50;;;10.40;70.50;;;9.97;55.86;94580.38;5130789;27;20583;-81
2021/05/19 02:15:20;;;;;;;2.70;1.67;;;10.40;70.60;;;9.91;55.44;94579.34;5085454;27;20201;-80
2021/05/19 02:17:49;;;;;;;1.50;1.40;;;10.40;70.50;;;9.97;55.55;94584.81;5027403;28;20223;-80
2021/05/19 02:20:20;;;;;;;3.15;1.40;;;10.40;70.50;;;9.97;55.72;94587.44;5046345;28;20663;-80
2021/05/19 02:22:48;;;;;;;1.92;1.60;;;10.40;70.70;;;9.98;55.61;94594.28;4963155;28;20253;-80
2021/05/19 02:25:18;;;;;;;1.40;1.30;;;10.40;70.60;;;9.98;55.56;94589.06;4909415;29;20213;-80
2021/05/19 02:27:47;;;;;;;1.55;1.40;;;10.50;70.70;;;9.99;55.42;94586.22;4873176;29;20335;-80
2021/05/19 02:30:18;;;;;;;1.40;1.30;;;10.40;70.70;;;9.97;55.71;94583.00;4787829;29;20231;-81
2021/05/19 02:35:17;;;;;;;3.35;1.40;;;10.40;70.50;;;9.99;55.52;94583.63;5149981;27;20627;-80
2021/05/19 02:37:53;;;;;;;2.45;1.25;;;10.40;70.50;;;9.99;55.37;94583.63;5048675;28;20223;-80
2021/05/19 02:40:20;;;;;;;1.38;1.27;;;10.40;70.50;;;9.97;55.30;94584.81;5025862;28;20264;-80
2021/05/19 02:42:47;;;;;;;2.13;1.30;;;10.40;70.40;;;9.96;55.44;94598.91;5003680;28;20227;-80
2021/05/19 02:45:19;;;;;;;1.15;1.05;;;10.50;70.50;;;9.93;55.85;94590.44;4945827;28;20268;-79
2021/05/19 02:47:46;;;;;;;1.55;1.42;;;10.40;70.40;;;9.92;55.57;94591.47;4906132;29;20261;-80
2021/05/19 02:50:15;;;;;;;2.80;1.33;;;10.40;70.30;;;9.91;55.70;94591.63;4870426;29;20221;-80
2021/05/19 02:52:41;;;;;;;1.98;1.20;;;10.40;70.50;;;9.90;55.63;94590.03;4745642;29;20328;-80
2021/05/19 02:56:57;;;;;;;1.38;1.13;;;10.40;70.50;;;9.86;55.62;94588.78;5138266;27;20647;-81
2021/05/19 02:59:24;;;;;;;1.40;1.30;;;10.40;70.40;;;9.85;55.55;94597.66;5086181;28;20229;-80
2021/05/19 03:01:51;;;;;;;1.30;1.20;;;10.40;70.40;;;9.83;55.64;94595.25;5073083;28;20595;-81
2021/05/19 03:04:18;;;;;;;1.33;1.23;;;10.40;70.50;;;9.83;55.59;94597.84;5066928;28;20231;-80
2021/05/19 03:06:45;;;;;;;1.58;1.35;;;10.30;70.50;;;9.83;55.72;94595.25;5061394;28;20201;-79
2021/05/19 03:09:11;;;;;;;2.00;1.20;;;10.30;70.50;;;9.83;55.57;94599.69;4985971;28;20228;-79
2021/05/19 03:11:38;;;;;;;1.30;1.20;;;10.30;70.50;;;9.81;55.80;94597.22;4940953;28;20242;-80
2021/05/19 03:14:05;;;;;;;1.40;1.30;;;10.30;70.60;;;9.80;55.80;94593.00;4790468;29;20246;-80
2021/05/19 03:18:02;;;;;;;1.85;1.40;;;10.30;70.70;;;9.79;56.73;94594.03;5121034;27;20665;-80
2021/05/19 03:20:29;;;;;;;2.65;1.27;;;10.30;70.90;;;9.80;56.44;94595.63;5087261;28;20661;-80
2021/05/19 03:22:58;;;;;;;1.48;1.38;;;10.40;71.00;;;9.83;56.40;94595.25;5053122;28;20258;-81
2021/05/19 03:25:24;;;;;;;1.25;1.23;;;10.30;71.00;;;9.86;56.39;94597.47;5002924;28;20214;-82
2021/05/19 03:27:51;;;;;;;1.90;1.30;;;10.30;70.90;;;9.85;56.71;94587.19;4961492;28;20279;-82
2021/05/19 03:30:18;;;;;;;2.08;1.50;;;10.30;71.10;;;9.88;56.75;94597.28;4888447;29;20461;-82
2021/05/19 03:32:45;;;;;;;1.20;1.10;;;10.40;71.30;;;9.86;57.41;94587.00;4740785;29;20236;-80
2021/05/19 03:35:13;;;;;;;1.35;1.25;;;10.30;71.40;;;9.88;56.94;94587.59;4576112;30;20237;-80
2021/05/19 03:39:43;;;;;;;1.30;1.20;;;10.30;71.30;;;9.92;56.43;94590.63;5150563;27;20631;-80
2021/05/19 03:42:10;;;;;;;1.42;1.20;;;10.40;72.10;;;9.95;56.28;94592.88;5085106;28;20851;-80
2021/05/19 03:44:37;;;;;;;1.40;1.30;;;10.40;71.20;;;9.97;56.21;94597.91;5055687;28;20219;-80
2021/05/19 03:47:04;;;;;;;1.75;1.30;;;10.40;71.20;;;9.99;56.43;94599.34;5023241;28;20207;-80
2021/05/19 03:49:34;;;;;;;1.38;1.30;;;10.40;71.30;;;10.01;56.43;94597.34;4978305;28;20259;-80
2021/05/19 03:52:01;;;;;;;1.65;1.42;;;10.40;71.30;;;10.03;56.37;94600.56;4938419;28;20204;-81
2021/05/19 03:54:30;;;;;;;1.48;1.20;;;10.40;71.30;;;10.05;56.17;94609.03;4825156;29;20229;-80
2021/05/19 03:56:57;;;;;;;2.67;1.50;;;10.50;71.30;;;10.06;56.64;94604.63;4641235;30;20242;-80
2021/05/19 04:02:01;;;;;;;2.20;1.40;;;10.50;71.40;;;10.09;56.69;94610.28;5136152;27;21091;-79
2021/05/19 04:04:27;;;;;;;1.40;1.30;;;10.50;71.40;;;10.15;56.90;94615.72;5095031;28;20255;-80
2021/05/19 04:06:54;;;;;;;1.40;1.30;;;10.50;71.40;;;10.12;56.90;94611.69;5086344;28;20220;-79
2021/05/19 04:09:21;;;;;;;2.10;1.33;;;10.60;71.40;;;10.18;56.88;94621.38;5092883;28;20231;-80
2021/05/19 04:11:47;;;;;;;2.88;1.52;;;10.60;71.70;;;10.21;56.57;94626.22;5074958;28;20261;-80
2021/05/19 04:14:18;;;;;;;1.58;1.20;;;10.60;71.50;;;10.24;56.70;94625.84;5000618;28;20239;-79
2021/05/19 04:16:45;;;;;;;2.08;1.17;;;10.60;71.50;;;10.27;56.63;94629.88;4890502;29;20210;-80
2021/05/19 04:19:12;;;;;;;1.30;1.20;;;10.70;71.50;;;10.32;56.83;94629.28;4720892;29;20238;-80
2021/05/19 04:24:15;;;;;;;1.50;1.40;;;10.70;71.70;;;10.39;56.60;94636.19;5125907;27;20642;-80
2021/05/19 04:26:42;;;;;;;2.03;1.40;;;10.70;71.80;;;10.44;56.50;94632.19;5090470;28;20257;-80
2021/05/19 04:29:08;;;;;;;1.17;1.13;;;10.80;71.80;;;10.48;56.58;94636.81;5086394;28;20235;-80
2021/05/19 04:31:35;;;;;;;2.25;1.35;;;10.80;71.80;;;10.52;56.57;94643.28;5021122;28;20208;-80
2021/05/19 04:34:03;;;;;;;1.80;1.40;;;10.80;71.80;;;10.56;56.48;94639.25;4958017;28;20588;-80
2021/05/19 04:36:30;;;;;;;1.20;1.10;;;10.80;71.70;;;10.58;56.86;94644.31;4901673;29;20308;-80
2021/05/19 04:38:57;;;;;;;1.50;1.20;;;10.90;71.80;;;10.63;56.91;94647.16;4814627;29;20225;-80
2021/05/19 04:41:24;;;;;;;1.52;1.40;;;10.90;71.80;;;10.66;57.02;94648.56;4621874;29;20692;-80
2021/05/19 04:45:56;;;;;;;2.45;1.33;;;11.00;71.90;;;10.72;56.60;94647.78;5126191;27;20574;-81
2021/05/19 04:48:23;;;;;;;2.22;1.20;;;11.00;71.80;;;10.78;56.60;94648.78;5068511;28;20219;-80
2021/05/19 04:50:51;;;;;;;2.40;1.40;;;11.10;71.90;;;10.79;57.23;94645.97;5052343;28;20223;-80
2021/05/19 04:53:17;;;;;;;1.67;1.42;;;11.10;71.90;;;10.86;57.22;94649.41;5004466;28;20230;-80
2021/05/19 04:55:44;;;;;;;3.20;1.10;;;11.20;72.10;;;10.92;57.12;94654.88;4985697;28;20220;-80
2021/05/19 04:58:11;;;;;;;1.40;1.30;;;11.20;72.10;;;10.97;57.04;94655.06;4856817;29;20255;-79
2021/05/19 05:00:38;;;;;;;1.42;1.33;;;11.30;73.00;;;11.01;56.50;94648.41;4811782;29;20205;-80
2021/05/19 05:03:05;;;;;;;1.50;1.40;;;11.30;72.00;;;11.08;56.82;94659.72;4627841;30;20601;-79
2021/05/19 05:07:52;;;;;;;1.10;1.10;;;11.30;72.10;;;11.19;56.66;94653.88;5133891;27;20691;-80
2021/05/19 05:10:19;;;;;;;1.42;1.33;;;11.50;72.10;;;11.30;56.48;94662.16;5101957;28;20201;-81
2021/05/19 05:12:47;;;;;;;1.58;1.48;;;11.50;72.10;;;11.34;56.82;94656.31;5082942;28;20684;-80
2021/05/19 05:15:15;;;;;;;1.55;1.40;;;11.50;72.20;;;11.43;56.49;94651.66;5043705;28;20204;-80
2021/05/19 05:17:43;;;;;;;1.85;1.40;;;11.60;72.10;;;11.54;56.42;94658.09;5025563;28;20278;-80
2021/05/19 05:20:10;;;;;;;2.83;1.30;;;11.70;72.20;;;11.62;56.50;94655.28;4982483;28;20225;-81
2021/05/19 05:22:38;;;;;;;1.60;1.50;;;11.70;72.10;;;11.70;56.00;94651.59;4820079;29;20256;-80
2021/05/19 05:25:08;;;;;;;2.28;1.42;;;11.80;72.10;;;11.77;56.13;94657.66;4716102;29;20221;-80
2021/05/19 05:30:07;;;;;;;3.15;1.70;;;11.90;72.20;;;11.86;55.92;94653.00;5149679;27;20298;-81
2021/05/19 05:32:34;;;;;;;1.67;1.50;;;12.00;72.00;;;11.94;55.91;94658.03;5111999;27;20230;-80
2021/05/19 05:35:01;;;;;;;1.60;1.30;;;12.10;71.90;;;11.99;56.17;94652.19;5127305;27;20196;-81
2021/05/19 05:37:27;;;;;;;1.60;1.40;;;12.20;71.90;;;12.06;56.06;94655.59;5092489;28;20224;-80
2021/05/19 05:39:54;;;;;;;2.15;1.30;;;12.20;71.80;;;12.11;55.86;94655.78;5042052;28;20201;-81
2021/05/19 05:42:22;;;;;;;2.10;1.50;;;12.30;71.70;;;12.12;55.86;94641.63;4965809;28;20210;-81
2021/05/19 05:44:49;;;;;;;1.60;1.50;;;12.30;71.60;;;12.18;55.62;94655.75;4802239;29;20230;-80
2021/05/19 05:47:15;;;;;;;1.33;1.30;;;12.30;71.50;;;12.24;55.73;94654.94;4698545;30;20712;-81
2021/05/19 05:51:17;;;;;;;1.58;1.48;;;12.40;71.60;;;12.28;55.91;94648.25;5150506;27;20635;-80
2021/05/19 05:53:44;;;;;;;2.63;1.70;;;12.50;71.30;;;12.30;55.61;94656.72;5112466;28;20271;-81
2021/05/19 05:56:10;;;;;;;1.48;1.38;;;12.60;71.40;;;12.33;55.67;94656.31;5107142;28;20275;-80
2021/05/19 05:58:42;;;;;;;4.38;1.60;;;12.70;71.50;;;12.33;55.41;94651.03;5097935;28;20241;-80
2021/05/19 06:01:10;;;;;;;1.55;1.45;;;12.60;71.20;;;12.36;55.76;94659.53;5063318;28;20672;-80
2021/05/19 06:03:37;;;;;;;2.45;1.60;;;12.60;71.30;;;12.41;55.24;94654.44;5048234;28;20224;-81
2021/05/19 06:06:04;;;;;;;6.95;1.60;;;12.70;71.40;;;12.44;55.63;94654.84;4931506;28;20210;-80
2021/05/19 06:08:32;;;;;;;1.60;1.50;;;12.70;71.40;;;12.53;55.40;94662.50;4779119;29;20235;-81
2021/05/19 06:12:44;;;;;;;2.50;1.50;;;12.80;71.40;;;12.64;55.51;94662.63;5145019;27;21179;-81
2021/05/19 06:15:10;;;;;;;1.60;1.50;;;12.80;71.40;;;12.74;55.67;94670.09;5118337;28;20216;-79
2021/05/19 06:17:37;;;;;;;1.90;1.60;;;12.90;71.50;;;12.80;55.06;94665.78;5082233;28;20952;-80
2021/05/19 06:20:05;;;;;;;2.42;1.85;;;13.00;71.40;;;12.86;55.21;94666.78;5046704;28;20208;-81
2021/05/19 06:22:32;;;;;;;1.70;1.60;;;13.00;71.40;;;12.91;55.17;94662.47;5004128;28;20709;-81
2021/05/19 06:24:59;;;;;;;2.25;1.90;;;13.10;71.40;;;12.96;55.04;94652.13;4946085;28;20222;-80
2021/05/19 06:27:25;;;;;;;2.25;1.90;;;13.10;71.40;;;13.03;55.45;94649.44;4877190;28;20232;-80
2021/05/19 06:29:53;;;;;;;2.03;1.70;;;13.20;71.30;;;13.13;55.28;94652.41;4669221;30;21596;-81
2021/05/19 06:33:55;;;;;;;2.72;1.80;;;13.20;71.50;;;13.32;55.04;94649.00;5133435;27;20575;-80
2021/05/19 06:36:22;;;;;;;1.85;1.75;;;13.40;71.50;;;13.45;55.07;94641.84;5074872;28;20227;-81
2021/05/19 06:38:49;;;;;;;2.08;1.88;;;13.40;71.50;;;13.59;54.72;94650.44;5027876;28;20239;-80
2021/05/19 06:41:16;;;;;;;2.20;1.95;;;13.60;71.50;;;13.70;54.62;94641.00;5055338;28;20252;-81
2021/05/19 06:43:42;;;;;;;2.72;2.13;;;13.70;71.40;;;13.87;54.00;94643.88;5017407;28;20317;-80
2021/05/19 06:46:09;;;;;;;2.00;1.52;;;13.80;71.30;;;14.07;54.30;94648.97;4908347;29;20225;-81
2021/05/19 06:48:37;;;;;;;1.77;1.67;;;13.90;71.40;;;14.23;53.89;94644.91;4852503;29;20248;-81
2021/05/19 06:51:05;;;;;;;2.50;2.10;;;14.00;71.40;;;14.45;54.03;94641.00;4625063;30;20229;-80
2021/05/19 06:55:07;;;;;;;3.05;2.15;;;14.20;71.70;;;14.80;53.41;94651.72;5150380;27;20630;-80
2021/05/19 06:57:37;;;;;;;2.25;1.70;;;14.50;71.40;;;14.96;53.22;94633.63;5107492;28;20220;-80
2021/05/19 07:00:07;;;;;;;3.40;2.10;;;14.60;72.10;;;15.18;52.89;94641.84;5102245;28;20222;-80
2021/05/19 07:02:33;;;;;;;2.10;1.90;;;14.80;71.00;;;15.33;52.35;94647.50;5086844;28;20715;-80
2021/05/19 07:05:00;;;;;;;3.22;1.88;;;14.90;70.70;;;15.44;52.56;94637.97;5024945;28;20244;-80
2021/05/19 07:07:28;;;;;;;2.10;1.90;;;15.10;70.70;;;15.58;51.91;94646.47;5002346;28;20236;-81
2021/05/19 07:09:54;;;;;;;1.75;1.65;;;15.20;70.30;;;15.67;51.89;94639.00;4925143;29;20246;-81
2021/05/19 07:12:21;;;;;;;1.80;1.70;;;15.30;70.10;;;15.77;51.89;94638.41;4761835;29;20670;-81
2021/05/19 07:17:02;;;;;;;2.08;1.80;;;15.50;70.10;;;15.80;51.44;94644.06;5131567;27;20644;-81
2021/05/19 07:19:28;;;;;;;2.80;1.60;;;15.70;69.60;;;15.79;51.73;94641.66;5089333;28;20232;-80
2021/05/19 07:21:55;;;;;;;1.70;1.60;;;15.70;69.30;;;15.79;51.05;94644.28;5074165;28;20197;-81
2021/05/19 07:24:22;;;;;;;1.50;1.40;;;15.80;68.90;;;15.80;51.07;94641.41;5041426;28;20223;-80
2021/05/19 07:26:50;;;;;;;1.75;1.63;;;15.70;68.90;;;15.84;51.34;94639.13;5025639;28;20209;-80
2021/05/19 07:29:17;;;;;;;3.15;1.70;;;15.80;69.00;;;15.96;51.67;94644.41;4970031;28;20320;-80
2021/05/19 07:31:45;;;;;;;2.30;1.80;;;15.80;69.30;;;16.05;51.39;94632.47;4881374;28;20271;-81
2021/05/19 07:34:12;;;;;;;1.80;1.70;;;15.90;69.50;;;16.20;51.43;94629.31;4727351;29;20311;-81
2021/05/19 07:39:13;;;;;;;1.83;1.67;;;16.00;69.50;;;16.44;50.47;94623.94;5112012;27;20590;-81
2021/05/19 07:41:40;;;;;;;1.73;1.40;;;16.10;69.80;;;16.57;51.17;94625.53;5087658;28;20205;-81
2021/05/19 07:44:07;;;;;;;2.92;1.50;;;16.20;69.30;;;16.74;51.05;94633.50;5084375;28;21819;-81
2021/05/19 07:46:34;;;;;;;1.70;1.60;;;16.30;69.50;;;16.81;49.87;94629.66;5073352;28;20223;-81
2021/05/19 07:49:01;;;;;;;1.98;1.48;;;16.50;68.60;;;16.89;49.93;94638.28;4986778;28;20232;-80
2021/05/19 07:51:28;;;;;;;1.63;1.40;;;16.60;68.60;;;16.88;49.68;94628.72;4839503;29;20552;-80
2021/05/19 07:53:55;;;;;;;1.50;1.40;;;16.70;68.10;;;16.88;49.47;94634.84;4743494;29;20235;-80
2021/05/19 08:03:38;;;;;;;2.08;1.58;;;16.90;68.00;;;17.01;48.56;94628.44;5129274;27;20208;-81
2021/05/19 08:06:04;;;;;;;1.70;1.60;;;16.90;67.10;;;17.04;48.74;94625.31;5113974;28;20210;-81
2021/05/19 08:08:31;;;;;;;1.73;1.63;;;16.90;67.20;;;17.06;49.05;94615.28;5108337;28;20216;-81
2021/05/19 08:10:58;;;;;;;3.47;1.80;;;16.90;67.70;;;17.19;48.65;94616.03;5049880;28;20209;-80
2021/05/19 08:13:24;;;;;;;1.73;1.58;;;17.00;67.50;;;17.22;48.97;94610.22;4964212;28;20222;-81
2021/05/19 08:15:50;;;;;;;1.65;1.55;;;17.00;67.50;;;17.36;48.89;94616.81;4930781;28;20234;-81
2021/05/19 08:18:17;;;;;;;2.45;1.75;;;17.20;67.60;;;17.44;47.78;94621.72;4854487;29;20228;-80
2021/05/19 08:23:17;;;;;;;1.95;1.75;;;17.20;66.90;;;17.47;47.04;94622.28;5139148;27;20347;-80
2021/05/19 08:25:43;;;;;;;1.77;1.67;;;17.30;66.30;;;17.49;47.85;94620.19;5104889;28;20237;-81
2021/05/19 08:28:10;;;;;;;1.63;1.52;;;17.30;66.40;;;17.51;47.78;94621.53;5089768;28;20274;-81
2021/05/19 08:30:37;;;;;;;1.60;1.50;;;17.40;66.40;;;17.59;47.75;94620.34;5095489;28;20206;-81
2021/05/19 08:33:04;;;;;;;2.03;1.70;;;17.40;66.60;;;17.73;48.09;94615.50;5021483;28;20240;-80
2021/05/19 08:35:30;;;;;;;2.00;1.80;;;17.40;66.80;;;17.88;47.84;94617.56;4994811;28;20216;-81
2021/05/19 08:37:57;;;;;;;1.80;1.58;;;17.60;66.80;;;18.01;47.63;94614.56;4879433;28;20701;-80
2021/05/19 08:40:24;;;;;;;1.90;1.60;;;17.70;66.90;;;18.14;47.32;94607.28;4657052;29;20500;-81
2021/05/19 08:43:02;;;;;;;1.75;1.65;;;17.80;66.40;;;18.12;47.03;94610.19;5119004;27;20328;-82
2021/05/19 08:45:30;;;;;;;1.77;1.67;;;17.80;66.00;;;18.15;47.05;94616.88;5081822;28;20198;-81
2021/05/19 08:48:03;;;;;;;2.13;1.60;;;17.90;66.00;;;18.06;45.59;94619.16;5058686;28;20225;-80
2021/05/19 08:50:33;;;;;;;1.98;1.70;;;17.90;64.80;;;18.00;46.08;94614.84;5037859;28;20205;-80
2021/05/19 08:53:00;;;;;;;3.03;1.50;;;18.00;65.30;;;18.02;46.54;94613.53;4950658;28;20232;-80
2021/05/19 08:55:28;;;;;;;1.88;1.77;;;17.90;65.20;;;17.97;45.56;94617.97;4844584;29;20485;-81
2021/05/19 08:57:56;;;;;;;2.08;1.70;;;17.90;64.70;;;17.98;46.51;94615.09;4692105;30;20348;-80
2021/05/19 09:00:23;;;;;;;1.58;1.48;;;17.90;65.10;;;18.00;46.14;94614.84;4450436;31;20216;-81
2021/05/19 09:03:13;;;;;;;1.70;1.60;;;17.90;65.00;;;17.98;45.48;94612.44;5133368;27;20322;-81
2021/05/19 09:05:44;;;;;;;1.88;1.70;;;17.90;64.60;;;18.01;45.34;94611.13;5086497;28;20697;-82
2021/05/19 09:08:17;;;;;;;1.73;1.63;;;17.90;64.50;;;18.00;45.74;94604.22;5076831;28;20219;-79
2021/05/19 09:10:58;;;;;;;1.85;1.58;;;17.90;64.60;;;17.99;45.41;94616.69;5007469;28;20340;-81
2021/05/19 09:13:45;;;;;;;1.60;1.50;;;18.00;64.40;;;17.97;45.17;94612.66;4981879;28;20313;-81
2021/05/19 09:16:32;;;;;;;1.50;1.40;;;17.90;64.30;;;17.96;45.50;94611.88;4906522;28;20721;-82
2021/05/19 09:19:00;;;;;;;1.60;1.50;;;18.00;64.70;;;18.09;46.25;94594.78;4833910;29;20326;-81
2021/05/19 09:24:32;;;;;;;1.65;1.55;;;17.90;64.80;;;18.31;45.60;94599.28;5132657;27;20571;-81
2021/05/19 09:27:02;;;;;;;1.88;1.60;;;18.10;64.80;;;18.33;45.93;94599.84;5017146;28;20689;-79
2021/05/19 09:29:39;;;;;;;2.30;1.92;;;18.10;64.60;;;18.35;45.43;94611.81;5075436;28;20234;-83
2021/05/19 09:32:09;;;;;;;1.65;1.55;;;18.10;65.10;;;18.36;45.56;94610.75;5064671;28;20226;-80
2021/05/19 09:34:38;;;;;;;1.88;1.65;;;18.20;64.50;;;18.33;45.62;94613.09;5032876;28;20218;-80
2021/05/19 09:37:22;;;;;;;1.67;1.58;;;18.20;64.30;;;18.30;45.62;94617.06;4959826;28;20301;-80
2021/05/19 09:40:06;;;;;;;1.70;1.60;;;18.30;64.40;;;18.27;45.72;94611.44;4833720;29;20290;-80
2021/05/19 09:42:57;;;;;;;2.60;1.70;;;18.20;64.20;;;18.21;45.51;94607.91;5144089;27;20655;-81
2021/05/19 09:45:42;;;;;;;1.75;1.63;;;18.30;64.40;;;18.20;46.33;94612.44;5092754;28;20209;-81
2021/05/19 09:48:14;;;;;;;1.40;1.30;;;18.20;64.60;;;18.17;45.72;94615.56;5069646;28;20560;-80
2021/05/19 09:50:43;;;;;;;1.70;1.60;;;18.20;64.30;;;18.22;45.68;94617.50;5024590;28;20238;-80
2021/05/19 09:53:15;;;;;;;1.60;1.50;;;18.10;64.30;;;18.21;45.00;94613.22;4978295;28;20245;-80
2021/05/19 09:56:02;;;;;;;1.80;1.70;;;18.10;63.90;;;18.16;45.42;94608.69;4925071;28;20208;-80
2021/05/19 09:58:40;;;;;;;1.63;1.33;;;18.20;64.20;;;18.21;45.74;94607.91;4855758;29;20593;-79
2021/05/19 10:01:24;;;;;;;1.90;1.70;;;18.10;64.90;;;18.32;45.48;94599.03;4704005;29;20707;-80
2021/05/19 10:03:58;;;;;;;2.33;1.77;;;18.10;64.30;;;18.50;45.12;94605.84;5119600;27;20401;-79
2021/05/19 10:06:28;;;;;;;1.50;1.40;;;18.20;64.50;;;18.53;43.89;94596.63;5085745;28;20201;-80
2021/05/19 10:09:07;;;;;;;1.50;1.40;;;18.30;63.30;;;18.55;44.52;94595.31;5084328;28;20269;-79
2021/05/19 10:11:35;;;;;;;1.52;1.42;;;18.40;63.40;;;18.54;44.19;94592.88;5096125;28;20206;-80
2021/05/19 10:14:04;;;;;;;1.80;1.50;;;18.50;63.20;;;18.60;43.86;94599.06;5063156;28;20231;-80
2021/05/19 10:16:31;;;;;;;2.33;1.50;;;18.40;63.20;;;18.62;44.69;94603.06;5014183;28;20235;-81
2021/05/19 10:19:04;;;;;;;1.60;1.50;;;18.50;63.60;;;18.68;44.48;94606.59;4944490;28;20240;-80
2021/05/19 10:21:35;;;;;;;1.77;1.67;;;18.50;63.50;;;18.78;44.75;94603.22;4740421;29;20233;-79
2021/05/19 10:26:12;;;;;;;1.42;1.33;;;18.50;63.70;;;18.99;44.40;94593.63;5130235;27;20639;-80
2021/05/19 10:28:47;;;;;;;1.83;1.48;;;18.70;63.40;;;19.06;43.96;94591.56;5062276;28;20226;-80
2021/05/19 10:31:28;;;;;;;1.40;1.30;;;18.80;62.60;;;19.03;43.25;94584.09;5023512;28;20204;-82
2021/05/19 10:33:57;;;;;;;1.70;1.60;;;18.80;62.60;;;19.02;43.91;94588.59;4989300;28;20223;-80
2021/05/19 10:36:23;;;;;;;1.40;1.30;;;18.80;62.60;;;18.93;43.38;94598.09;4990589;28;20729;-80
2021/05/19 10:41:45;;;;;;;1.40;1.30;;;18.80;62.60;;;18.46;42.77;94614.59;4867107;29;20238;-80
2021/05/19 10:44:34;;;;;;;3.42;1.58;;;18.70;61.90;;;18.07;42.71;94621.56;5129794;27;20565;-81
2021/05/19 10:47:09;;;;;;;1.50;1.40;;;18.60;61.90;;;17.69;43.12;94615.19;5103772;28;20338;-80
2021/05/19 11:01:13;;;;;;;1.40;1.30;;;17.40;62.40;;;16.55;45.38;94604.59;4677299;30;20293;-81
2021/05/19 11:05:55;;;;;;;1.50;1.40;;;17.20;62.90;;;16.72;45.43;94595.84;5140177;27;20538;-81
2021/05/19 11:08:27;;;;;;;1.38;1.27;;;17.00;63.40;;;16.89;44.75;94591.38;5090730;28;20317;-80
2021/05/19 11:11:14;;;;;;;1.30;1.20;;;17.10;63.50;;;17.15;44.96;94596.34;5064506;28;22015;-80
2021/05/19 11:14:14;;;;;;;2.70;1.35;;;17.10;63.50;;;17.47;45.10;94593.09;5023106;28;20579;-81
2021/05/19 11:17:14;;;;;;;1.30;1.20;;;17.20;63.80;;;17.74;44.00;94586.06;4973018;28;20354;-81
2021/05/19 11:19:42;;;;;;;1.10;1.05;;;17.50;63.60;;;18.02;44.24;94605.56;4801712;29;20225;-82
2021/05/19 11:22:15;;;;;;;1.40;1.30;;;17.70;63.70;;;18.32;43.99;94579.63;4627486;30;20251;-82
2021/05/19 11:25:02;;;;;;;1.75;1.65;;;17.80;63.50;;;18.52;43.10;94579.84;5149681;27;20647;-81
2021/05/19 11:27:33;;;;;;;2.53;2.33;;;18.10;63.20;;;18.66;41.88;94588.25;5086090;28;20232;-82
2021/05/19 11:30:02;;;;;;;2.55;2.00;;;18.30;62.30;;;18.81;42.64;94587.59;5070063;28;20209;-81
2021/05/19 11:32:35;;;;;;;1.80;1.70;;;18.40;62.90;;;18.84;41.57;94604.88;5037897;28;20286;-81
2021/05/19 11:35:20;;;;;;;1.40;1.30;;;18.50;62.30;;;18.69;42.00;94598.34;5013898;28;20619;-80
2021/05/19 11:38:08;;;;;;;1.50;1.40;;;18.60;62.40;;;18.39;42.21;94590.88;4925604;29;20233;-80
2021/05/19 11:40:49;;;;;;;1.50;1.40;;;18.50;62.20;;;17.93;43.20;94610.47;4840506;29;20223;-81
2021/05/19 11:43:38;;;;;;;1.40;1.33;;;18.40;62.20;;;17.28;44.71;94614.56;5137648;27;20671;-81